Time;durP1;ratioP1;P1;durP2;ratioP2;P2;SDS_P1;SDS_P2;PMS_P1;PMS_P2;Temp;Humidity;BMP_temperature;BMP_pressure;BME280_temperature;BME280_humidity;BME280_pressure;Samples;Min_cycle;Max_cycle;Signal;HPM_P1;HPM_P2
2021/08/15 00:01:50;;;;;;;23.15;14.43;;;;;;;;;;5012798;28;20044;-84
2021/08/15 00:04:15;;;;;;;34.20;17.50;;;;;;;;;;5012535;28;20409;-84
2021/08/15 00:06:40;;;;;;;28.63;16.17;;;;;;;;;;5012991;28;20071;-84
2021/08/15 00:09:06;;;;;;;27.77;16.02;;;;;;;;;;5013098;28;20014;-84
2021/08/15 00:11:32;;;;;;;25.35;15.13;;;;;;;;;;5013198;28;20033;-84
2021/08/15 00:13:57;;;;;;;29.75;14.95;;;;;;;;;;5012820;28;20076;-84
2021/08/15 00:16:22;;;;;;;24.17;14.95;;;;;;;;;;5012869;28;20470;-84
2021/08/15 00:18:47;;;;;;;32.17;16.38;;;;;;;;;;5012691;28;20017;-84
2021/08/15 00:21:13;;;;;;;29.70;15.93;;;;;;;;;;5012854;28;20048;-84
2021/08/15 00:23:39;;;;;;;36.60;18.73;;;;;;;;;;5012535;28;20022;-84
2021/08/15 00:26:04;;;;;;;26.60;16.83;;;;;;;;;;5012588;28;20057;-84
2021/08/15 00:28:29;;;;;;;32.58;17.42;;;;;;;;;;5012690;28;20033;-84
2021/08/15 00:30:54;;;;;;;37.47;19.55;;;;;;;;;;5011358;28;20030;-84
2021/08/15 00:33:20;;;;;;;29.23;18.77;;;;;;;;;;5011475;28;20030;-84
2021/08/15 00:35:45;;;;;;;32.40;19.55;;;;;;;;;;5013125;28;20104;-84
2021/08/15 00:38:10;;;;;;;40.55;22.08;;;;;;;;;;5011568;28;20099;-84
2021/08/15 00:40:35;;;;;;;41.20;21.65;;;;;;;;;;5011542;28;20034;-84
2021/08/15 00:43:01;;;;;;;29.77;17.42;;;;;;;;;;5010884;28;20084;-84
2021/08/15 00:45:26;;;;;;;37.65;18.88;;;;;;;;;;5011122;28;20025;-85
2021/08/15 00:47:51;;;;;;;33.63;18.33;;;;;;;;;;5012132;28;20109;-84
2021/08/15 00:50:18;;;;;;;31.73;17.30;;;;;;;;;;5011293;28;20029;-84
2021/08/15 00:52:43;;;;;;;29.20;16.70;;;;;;;;;;5011129;28;20037;-84
2021/08/15 00:55:09;;;;;;;31.73;16.92;;;;;;;;;;5011043;28;20018;-84
2021/08/15 00:57:35;;;;;;;31.60;17.30;;;;;;;;;;5011460;28;20050;-84
2021/08/15 01:00:05;;;;;;;40.17;19.52;;;;;;;;;;5010744;28;20666;-85
2021/08/15 01:02:30;;;;;;;43.50;22.55;;;;;;;;;;5012013;28;20050;-84
2021/08/15 01:04:57;;;;;;;38.08;22.25;;;;;;;;;;5013247;28;20053;-84
2021/08/15 01:07:22;;;;;;;38.38;19.83;;;;;;;;;;5031732;28;20477;-85
2021/08/15 01:09:47;;;;;;;36.45;18.67;;;;;;;;;;5028715;28;20041;-84
2021/08/15 01:12:12;;;;;;;30.23;17.88;;;;;;;;;;5031440;28;20021;-84
2021/08/15 01:14:37;;;;;;;33.88;17.98;;;;;;;;;;5028473;28;20024;-84
2021/08/15 01:17:03;;;;;;;38.25;17.83;;;;;;;;;;5021964;28;20112;-84
2021/08/15 01:19:29;;;;;;;29.17;15.82;;;;;;;;;;5031338;28;20028;-84
2021/08/15 01:21:54;;;;;;;32.58;16.95;;;;;;;;;;5031236;28;20111;-84
2021/08/15 01:24:19;;;;;;;27.70;15.50;;;;;;;;;;5031330;28;20413;-84
2021/08/15 01:26:45;;;;;;;23.88;15.55;;;;;;;;;;5031332;28;20036;-84
2021/08/15 01:29:11;;;;;;;23.55;15.07;;;;;;;;;;5031366;28;20093;-84
2021/08/15 01:31:36;;;;;;;22.73;14.60;;;;;;;;;;5030943;28;20032;-84
2021/08/15 01:34:01;;;;;;;23.60;13.35;;;;;;;;;;5028966;28;20021;-84
2021/08/15 01:36:27;;;;;;;23.00;13.60;;;;;;;;;;5027044;28;20030;-84
2021/08/15 01:38:52;;;;;;;19.33;12.40;;;;;;;;;;5032507;28;20087;-84
2021/08/15 01:41:18;;;;;;;21.65;12.77;;;;;;;;;;5031330;28;20535;-84
2021/08/15 01:43:46;;;;;;;20.20;12.07;;;;;;;;;;5031043;28;20435;-84
2021/08/15 01:46:12;;;;;;;24.50;12.85;;;;;;;;;;5031108;28;20025;-84
2021/08/15 01:48:37;;;;;;;22.27;12.88;;;;;;;;;;5030888;28;20017;-84
2021/08/15 01:51:02;;;;;;;20.75;12.30;;;;;;;;;;5031099;28;20013;-84
2021/08/15 01:53:27;;;;;;;22.70;12.20;;;;;;;;;;5030952;28;20018;-84
2021/08/15 01:55:52;;;;;;;23.15;11.43;;;;;;;;;;5026857;28;20092;-84
2021/08/15 01:58:19;;;;;;;21.17;11.05;;;;;;;;;;5025492;28;20388;-84
2021/08/15 02:00:45;;;;;;;15.23;9.73;;;;;;;;;;5031019;28;20013;-84
2021/08/15 02:03:10;;;;;;;19.85;10.40;;;;;;;;;;5030904;28;20381;-84
2021/08/15 02:05:36;;;;;;;19.05;10.57;;;;;;;;;;5030988;28;20401;-84
2021/08/15 02:08:02;;;;;;;23.10;11.18;;;;;;;;;;5064261;28;20009;-84
2021/08/15 02:10:28;;;;;;;18.15;11.02;;;;;;;;;;5032041;28;20026;-84
2021/08/15 02:12:53;;;;;;;18.50;11.18;;;;;;;;;;5031984;28;20067;-84
2021/08/15 02:15:19;;;;;;;16.00;10.65;;;;;;;;;;5029267;28;20021;-84
2021/08/15 02:17:45;;;;;;;18.60;10.02;;;;;;;;;;5014935;28;20515;-84
2021/08/15 02:20:11;;;;;;;17.48;10.27;;;;;;;;;;5030746;28;20125;-84
2021/08/15 02:22:36;;;;;;;15.40;9.27;;;;;;;;;;5030491;28;20025;-84
2021/08/15 02:25:02;;;;;;;17.00;9.75;;;;;;;;;;5021782;28;20045;-84
2021/08/15 02:27:27;;;;;;;20.30;10.20;;;;;;;;;;5024880;28;20021;-84
2021/08/15 02:29:53;;;;;;;15.10;7.97;;;;;;;;;;5030667;28;20018;-84
2021/08/15 02:32:18;;;;;;;12.65;7.72;;;;;;;;;;5030931;28;20056;-84
2021/08/15 02:34:43;;;;;;;13.45;7.95;;;;;;;;;;5030763;28;20024;-84
2021/08/15 02:37:08;;;;;;;15.20;8.65;;;;;;;;;;5025939;28;20380;-84
2021/08/15 02:39:33;;;;;;;15.40;8.68;;;;;;;;;;5030565;28;20027;-84
2021/08/15 02:41:59;;;;;;;13.15;7.70;;;;;;;;;;5030556;28;20021;-84
2021/08/15 02:44:24;;;;;;;13.75;7.70;;;;;;;;;;5033078;28;20071;-85
2021/08/15 02:46:49;;;;;;;14.75;7.57;;;;;;;;;;5034109;28;20024;-84
2021/08/15 02:49:14;;;;;;;16.90;7.75;;;;;;;;;;5034331;28;20029;-84
2021/08/15 02:51:40;;;;;;;17.42;7.88;;;;;;;;;;5033931;28;20052;-84
2021/08/15 02:54:05;;;;;;;11.15;6.75;;;;;;;;;;5035395;28;20025;-84
2021/08/15 02:56:30;;;;;;;16.27;7.50;;;;;;;;;;5021948;28;20478;-84
2021/08/15 02:58:55;;;;;;;13.98;7.55;;;;;;;;;;5033859;28;20037;-84
2021/08/15 03:01:20;;;;;;;12.50;7.50;;;;;;;;;;5033928;28;20036;-84
2021/08/15 03:03:46;;;;;;;15.95;7.70;;;;;;;;;;5033737;28;20473;-84
2021/08/15 03:06:11;;;;;;;15.18;7.38;;;;;;;;;;5033979;28;20029;-84
2021/08/15 03:08:36;;;;;;;16.08;7.43;;;;;;;;;;5033659;28;20028;-84
2021/08/15 03:11:01;;;;;;;16.65;7.63;;;;;;;;;;5033848;28;20021;-84
2021/08/15 03:13:26;;;;;;;13.25;7.03;;;;;;;;;;5028514;28;20716;-85
2021/08/15 03:15:51;;;;;;;14.23;8.18;;;;;;;;;;5024490;28;20025;-84
2021/08/15 03:18:18;;;;;;;12.55;7.40;;;;;;;;;;5035128;28;20098;-84
2021/08/15 03:20:44;;;;;;;12.43;7.40;;;;;;;;;;5034849;28;20017;-84
2021/08/15 03:23:09;;;;;;;11.88;6.85;;;;;;;;;;5033485;28;20385;-84
2021/08/15 03:25:37;;;;;;;12.95;7.63;;;;;;;;;;5033596;28;20032;-84
2021/08/15 03:28:03;;;;;;;10.18;6.70;;;;;;;;;;5033417;28;20017;-85
2021/08/15 03:30:28;;;;;;;15.32;7.63;;;;;;;;;;5033641;28;20083;-84
2021/08/15 03:32:53;;;;;;;13.18;7.28;;;;;;;;;;5018830;28;20025;-84
2021/08/15 03:35:18;;;;;;;13.50;7.38;;;;;;;;;;5033518;28;20049;-84
2021/08/15 03:37:43;;;;;;;15.15;6.78;;;;;;;;;;5034620;28;20022;-84
2021/08/15 03:40:09;;;;;;;12.73;6.93;;;;;;;;;;5033443;28;20025;-84
2021/08/15 03:42:36;;;;;;;12.25;6.55;;;;;;;;;;5033053;28;20029;-84
2021/08/15 03:45:01;;;;;;;11.05;6.85;;;;;;;;;;5033463;28;20108;-85
2021/08/15 03:47:31;;;;;;;11.07;5.97;;;;;;;;;;5030385;28;20141;-84
2021/08/15 03:49:56;;;;;;;12.98;6.78;;;;;;;;;;5021298;28;20041;-84
2021/08/15 03:52:21;;;;;;;14.88;6.90;;;;;;;;;;5033089;28;20107;-84
2021/08/15 03:54:47;;;;;;;13.70;6.38;;;;;;;;;;5018253;28;20086;-84
2021/08/15 03:57:12;;;;;;;14.13;7.10;;;;;;;;;;5032943;28;20443;-85
2021/08/15 03:59:37;;;;;;;12.15;6.55;;;;;;;;;;5033061;28;20044;-84
2021/08/15 04:02:03;;;;;;;10.50;6.47;;;;;;;;;;5034105;28;20093;-85
2021/08/15 04:04:28;;;;;;;12.43;6.65;;;;;;;;;;5030761;28;20052;-84
2021/08/15 04:06:53;;;;;;;12.07;6.25;;;;;;;;;;5028547;28;20079;-84
2021/08/15 04:09:18;;;;;;;8.98;5.72;;;;;;;;;;5021459;28;20026;-84
2021/08/15 04:11:44;;;;;;;13.25;6.13;;;;;;;;;;5032323;28;20017;-85
2021/08/15 04:14:09;;;;;;;12.98;5.90;;;;;;;;;;5033454;28;20425;-85
2021/08/15 04:16:34;;;;;;;11.02;6.18;;;;;;;;;;5032666;28;20029;-85
2021/08/15 04:19:00;;;;;;;12.68;5.78;;;;;;;;;;5032069;28;20587;-84
2021/08/15 04:21:25;;;;;;;10.30;6.00;;;;;;;;;;5032388;28;20449;-84
2021/08/15 04:23:50;;;;;;;16.02;6.43;;;;;;;;;;5032305;28;20018;-84
2021/08/15 04:26:15;;;;;;;8.95;5.75;;;;;;;;;;5018200;28;20103;-85
2021/08/15 04:28:41;;;;;;;9.98;6.10;;;;;;;;;;5014899;28;20037;-85
2021/08/15 04:31:06;;;;;;;12.07;6.25;;;;;;;;;;5028362;28;20139;-84
2021/08/15 04:33:31;;;;;;;11.27;5.57;;;;;;;;;;5033504;28;20026;-85
2021/08/15 04:35:56;;;;;;;12.80;5.88;;;;;;;;;;5032202;28;20725;-84
2021/08/15 04:38:22;;;;;;;15.95;5.70;;;;;;;;;;5033356;28;20064;-84
2021/08/15 04:40:50;;;;;;;12.43;5.65;;;;;;;;;;5032089;28;20025;-84
2021/08/15 04:43:15;;;;;;;11.82;5.15;;;;;;;;;;5031773;28;20117;-85
2021/08/15 04:45:40;;;;;;;13.00;5.85;;;;;;;;;;5032026;28;20112;-85
2021/08/15 04:48:05;;;;;;;18.33;5.30;;;;;;;;;;5031972;28;20350;-85
2021/08/15 04:50:31;;;;;;;10.38;5.32;;;;;;;;;;5052681;28;20055;-85
2021/08/15 04:52:56;;;;;;;13.52;6.03;;;;;;;;;;5031977;28;20030;-84
2021/08/15 04:55:21;;;;;;;11.32;6.00;;;;;;;;;;5026937;28;20076;-84
2021/08/15 04:57:47;;;;;;;10.90;6.05;;;;;;;;;;5031652;28;20469;-85
2021/08/15 05:00:12;;;;;;;12.13;6.05;;;;;;;;;;5031664;28;20026;-85
2021/08/15 05:02:37;;;;;;;13.05;6.25;;;;;;;;;;5031399;28;20025;-84
2021/08/15 05:05:03;;;;;;;10.90;5.80;;;;;;;;;;5017009;28;20446;-85
2021/08/15 05:07:28;;;;;;;13.15;5.95;;;;;;;;;;5030626;28;20068;-85
2021/08/15 05:09:53;;;;;;;10.15;5.20;;;;;;;;;;5031312;28;20488;-85
2021/08/15 05:12:18;;;;;;;10.80;5.15;;;;;;;;;;5031100;28;20060;-85
2021/08/15 05:14:43;;;;;;;12.15;5.50;;;;;;;;;;5031425;28;20074;-84
2021/08/15 05:17:09;;;;;;;15.52;5.95;;;;;;;;;;5031253;28;20030;-85
2021/08/15 05:19:34;;;;;;;13.85;5.57;;;;;;;;;;5031217;28;20024;-84
2021/08/15 05:21:59;;;;;;;13.82;6.45;;;;;;;;;;5020284;28;20473;-84
2021/08/15 05:24:24;;;;;;;9.98;5.22;;;;;;;;;;5028469;28;20021;-85
2021/08/15 05:26:50;;;;;;;11.48;5.45;;;;;;;;;;5023143;28;20021;-85
2021/08/15 05:29:15;;;;;;;12.93;5.13;;;;;;;;;;5031168;28;20079;-84
2021/08/15 05:31:40;;;;;;;12.60;5.70;;;;;;;;;;5031358;28;20009;-85
2021/08/15 05:34:05;;;;;;;11.57;5.97;;;;;;;;;;5031227;28;20040;-85
2021/08/15 05:36:30;;;;;;;13.70;5.82;;;;;;;;;;5032338;28;20392;-85
2021/08/15 05:38:56;;;;;;;15.85;6.50;;;;;;;;;;5030974;28;20017;-85
2021/08/15 05:41:21;;;;;;;15.30;6.80;;;;;;;;;;5030829;28;20056;-85
2021/08/15 05:43:46;;;;;;;9.77;5.65;;;;;;;;;;5027758;28;20495;-85
2021/08/15 05:46:11;;;;;;;16.33;7.35;;;;;;;;;;5025383;28;20044;-84
2021/08/15 05:48:37;;;;;;;13.63;7.35;;;;;;;;;;5024728;28;20025;-85
2021/08/15 05:51:04;;;;;;;14.02;6.78;;;;;;;;;;5010048;28;20423;-85
2021/08/15 05:53:29;;;;;;;17.10;7.22;;;;;;;;;;5028104;28;20108;-85
2021/08/15 05:55:54;;;;;;;19.65;7.72;;;;;;;;;;5030009;28;20109;-85
2021/08/15 05:58:19;;;;;;;20.35;8.55;;;;;;;;;;5029774;28;20021;-85
2021/08/15 06:00:47;;;;;;;18.85;8.50;;;;;;;;;;5029975;28;20040;-85
2021/08/15 06:03:12;;;;;;;16.98;7.97;;;;;;;;;;5029181;28;20052;-84
2021/08/15 06:05:37;;;;;;;21.02;8.80;;;;;;;;;;5030796;28;20010;-85
2021/08/15 06:08:03;;;;;;;18.90;8.23;;;;;;;;;;5029974;28;20021;-84
2021/08/15 06:10:29;;;;;;;21.73;8.32;;;;;;;;;;5024547;28;20022;-85
2021/08/15 06:12:55;;;;;;;16.80;8.23;;;;;;;;;;5021314;28;20021;-85
2021/08/15 06:15:20;;;;;;;19.10;8.27;;;;;;;;;;5030983;28;20021;-85
2021/08/15 06:17:45;;;;;;;18.77;8.57;;;;;;;;;;5031377;28;20029;-84
2021/08/15 06:20:11;;;;;;;16.85;7.95;;;;;;;;;;5020394;28;20040;-84
2021/08/15 06:22:37;;;;;;;16.77;7.90;;;;;;;;;;5014868;28;20029;-84
2021/08/15 06:25:03;;;;;;;15.38;6.97;;;;;;;;;;5023119;28;20019;-84
2021/08/15 06:27:28;;;;;;;14.48;7.10;;;;;;;;;;5035460;28;20376;-85
2021/08/15 06:29:53;;;;;;;13.80;6.55;;;;;;;;;;5021170;28;20033;-84
2021/08/15 06:32:18;;;;;;;15.73;6.85;;;;;;;;;;5029812;28;20037;-85
2021/08/15 06:34:44;;;;;;;18.50;6.78;;;;;;;;;;5019018;28;20457;-84
2021/08/15 06:37:09;;;;;;;19.33;7.13;;;;;;;;;;5026143;28;20029;-84
2021/08/15 06:39:35;;;;;;;17.42;6.68;;;;;;;;;;5015318;28;20041;-85
2021/08/15 06:42:00;;;;;;;12.93;6.53;;;;;;;;;;5014830;28;20478;-84
2021/08/15 06:44:25;;;;;;;13.88;6.70;;;;;;;;;;5014706;28;20053;-85
2021/08/15 06:46:50;;;;;;;18.88;7.15;;;;;;;;;;5031645;28;20389;-84
2021/08/15 06:49:16;;;;;;;21.45;6.95;;;;;;;;;;5022456;28;20034;-84
2021/08/15 06:51:41;;;;;;;20.58;6.63;;;;;;;;;;5031577;28;20453;-84
2021/08/15 06:54:06;;;;;;;12.00;6.45;;;;;;;;;;5026141;28;20040;-84
2021/08/15 06:56:32;;;;;;;15.65;6.63;;;;;;;;;;5012924;28;20049;-85
2021/08/15 06:58:58;;;;;;;15.20;5.82;;;;;;;;;;5027352;28;20416;-84
2021/08/15 07:01:24;;;;;;;15.93;6.25;;;;;;;;;;5016125;28;20409;-84
2021/08/15 07:03:50;;;;;;;16.70;5.50;;;;;;;;;;5020716;28;20036;-85
2021/08/15 07:06:15;;;;;;;14.30;5.85;;;;;;;;;;5021794;28;20021;-84
2021/08/15 07:08:40;;;;;;;16.05;6.13;;;;;;;;;;5026303;28;20499;-84
2021/08/15 07:11:05;;;;;;;14.65;5.88;;;;;;;;;;5018591;28;20021;-84
2021/08/15 07:13:30;;;;;;;16.30;6.15;;;;;;;;;;5022520;28;20389;-84
2021/08/15 07:15:56;;;;;;;16.25;5.90;;;;;;;;;;5017818;28;20506;-84
2021/08/15 07:18:21;;;;;;;15.63;5.38;;;;;;;;;;5030419;28;20040;-84
2021/08/15 07:20:48;;;;;;;12.77;5.65;;;;;;;;;;5015178;28;20021;-85
2021/08/15 07:23:13;;;;;;;10.40;5.05;;;;;;;;;;5021434;28;20022;-84
2021/08/15 07:25:39;;;;;;;19.02;5.90;;;;;;;;;;5027089;28;20588;-85
2021/08/15 07:28:04;;;;;;;13.18;5.20;;;;;;;;;;5034835;28;20025;-85
2021/08/15 07:30:30;;;;;;;11.57;4.82;;;;;;;;;;5032903;28;20033;-85
2021/08/15 07:32:57;;;;;;;15.75;5.50;;;;;;;;;;5023295;28;20033;-84
2021/08/15 07:35:23;;;;;;;16.67;5.45;;;;;;;;;;5033449;28;20032;-85
2021/08/15 07:37:48;;;;;;;13.80;5.25;;;;;;;;;;5033378;28;20057;-85
2021/08/15 07:40:14;;;;;;;13.60;5.18;;;;;;;;;;5033337;28;20075;-84
2021/08/15 07:42:39;;;;;;;11.52;4.65;;;;;;;;;;5021536;28;20504;-85
2021/08/15 07:45:05;;;;;;;15.75;4.97;;;;;;;;;;5032540;28;20021;-84
2021/08/15 07:47:30;;;;;;;8.95;4.13;;;;;;;;;;5023559;28;20037;-85
2021/08/15 07:49:55;;;;;;;14.43;4.72;;;;;;;;;;5030490;28;20449;-84
2021/08/15 07:52:21;;;;;;;10.27;4.72;;;;;;;;;;5033271;28;20026;-84
2021/08/15 07:54:46;;;;;;;14.93;4.50;;;;;;;;;;5033012;28;20021;-84
2021/08/15 07:57:11;;;;;;;11.30;4.75;;;;;;;;;;5033150;28;20030;-85
2021/08/15 07:59:36;;;;;;;11.23;4.43;;;;;;;;;;5033241;28;20535;-85
2021/08/15 08:02:02;;;;;;;14.07;4.95;;;;;;;;;;5034164;28;20014;-84
2021/08/15 08:04:27;;;;;;;10.82;4.28;;;;;;;;;;5033044;28;20032;-84
2021/08/15 08:06:52;;;;;;;12.05;4.50;;;;;;;;;;5032780;28;20381;-84
2021/08/15 08:09:17;;;;;;;11.30;4.10;;;;;;;;;;5014590;28;20032;-85
2021/08/15 08:11:43;;;;;;;14.00;4.28;;;;;;;;;;5028552;28;20076;-84
2021/08/15 08:14:08;;;;;;;14.00;3.90;;;;;;;;;;5022448;28;20022;-84
2021/08/15 08:16:33;;;;;;;13.05;4.30;;;;;;;;;;5032800;28;20362;-84
2021/08/15 08:18:58;;;;;;;13.57;3.78;;;;;;;;;;5032599;28;20488;-84
2021/08/15 08:21:23;;;;;;;14.30;3.95;;;;;;;;;;5032697;28;20014;-84
2021/08/15 08:23:49;;;;;;;14.75;4.00;;;;;;;;;;5032756;28;20080;-85
2021/08/15 08:26:14;;;;;;;8.40;3.13;;;;;;;;;;5032514;28;20013;-85
2021/08/15 08:28:39;;;;;;;9.85;3.15;;;;;;;;;;5032670;28;20497;-84
2021/08/15 08:31:04;;;;;;;9.98;3.60;;;;;;;;;;5032522;28;20446;-84
2021/08/15 08:33:30;;;;;;;11.38;2.78;;;;;;;;;;5029189;28;20048;-84
2021/08/15 08:35:55;;;;;;;8.05;2.60;;;;;;;;;;5026150;28;20029;-84
2021/08/15 08:38:20;;;;;;;6.32;2.22;;;;;;;;;;5031805;28;20018;-84
2021/08/15 08:40:47;;;;;;;5.20;2.10;;;;;;;;;;5030889;28;20034;-84
2021/08/15 08:43:12;;;;;;;8.43;2.78;;;;;;;;;;5031670;28;20021;-84
2021/08/15 08:45:41;;;;;;;8.27;2.15;;;;;;;;;;5028538;28;20026;-85
2021/08/15 08:48:06;;;;;;;7.43;3.10;;;;;;;;;;5053601;28;20389;-84
2021/08/15 08:50:31;;;;;;;4.60;2.28;;;;;;;;;;5018492;28;20026;-84
2021/08/15 08:52:57;;;;;;;7.88;2.40;;;;;;;;;;5026354;28;20385;-84
2021/08/15 08:55:22;;;;;;;8.55;2.20;;;;;;;;;;5027699;28;20026;-84
2021/08/15 08:57:47;;;;;;;5.75;2.13;;;;;;;;;;5021622;28;20096;-84
2021/08/15 09:00:13;;;;;;;6.72;2.10;;;;;;;;;;5027107;28;20056;-84
2021/08/15 09:02:39;;;;;;;5.38;2.25;;;;;;;;;;5010212;28;20061;-84
2021/08/15 09:05:04;;;;;;;6.72;2.80;;;;;;;;;;5014131;28;20084;-84
2021/08/15 09:07:32;;;;;;;9.38;2.30;;;;;;;;;;5021740;28;20014;-85
2021/08/15 09:09:58;;;;;;;7.47;2.50;;;;;;;;;;5017514;28;20033;-84
2021/08/15 09:12:53;;;;;;;6.25;2.08;;;;;;;;;;5022675;28;20397;-84
2021/08/15 09:15:19;;;;;;;6.63;2.22;;;;;;;;;;4991887;28;20044;-84
2021/08/15 09:17:45;;;;;;;7.03;2.40;;;;;;;;;;5062819;28;20059;-84
2021/08/15 09:20:12;;;;;;;4.57;1.92;;;;;;;;;;5017946;28;20027;-84
2021/08/15 09:22:38;;;;;;;5.40;2.05;;;;;;;;;;5026124;28;20026;-83
2021/08/15 09:25:11;;;;;;;4.80;1.90;;;;;;;;;;5032086;28;20029;-84
2021/08/15 09:27:36;;;;;;;6.22;2.15;;;;;;;;;;5031645;28;20025;-84
2021/08/15 09:30:13;;;;;;;6.80;1.85;;;;;;;;;;5030213;28;20485;-84
2021/08/15 09:32:51;;;;;;;7.30;2.05;;;;;;;;;;5015523;28;20018;-84
2021/08/15 09:35:17;;;;;;;3.60;1.65;;;;;;;;;;5017746;28;20029;-85
2021/08/15 09:37:42;;;;;;;4.55;1.98;;;;;;;;;;5019095;28;20036;-84
2021/08/15 09:40:40;;;;;;;5.35;2.05;;;;;;;;;;5023162;28;20021;-85
2021/08/15 09:43:07;;;;;;;4.80;1.95;;;;;;;;;;4995643;28;20073;-85
2021/08/15 09:45:38;;;;;;;5.00;1.70;;;;;;;;;;5020646;28;20025;-85
2021/08/15 09:48:24;;;;;;;5.27;2.03;;;;;;;;;;5009282;28;20064;-85
2021/08/15 09:51:02;;;;;;;5.20;1.88;;;;;;;;;;5014095;28;20267;-85
2021/08/15 09:53:27;;;;;;;6.05;2.08;;;;;;;;;;5028515;28;20018;-86
2021/08/15 09:55:52;;;;;;;5.57;1.63;;;;;;;;;;5021038;28;20431;-84
2021/08/15 09:58:18;;;;;;;3.97;1.90;;;;;;;;;;5013303;28;20026;-84
2021/08/15 10:00:43;;;;;;;6.40;2.50;;;;;;;;;;5017144;28;20093;-85
2021/08/15 10:03:08;;;;;;;5.30;1.88;;;;;;;;;;5025122;28;20033;-84
2021/08/15 10:05:34;;;;;;;6.95;2.35;;;;;;;;;;5014884;28;20017;-84
2021/08/15 10:08:09;;;;;;;5.93;2.40;;;;;;;;;;5019434;28;20072;-85
2021/08/15 10:10:35;;;;;;;6.00;2.05;;;;;;;;;;5042854;28;20378;-84
2021/08/15 10:13:00;;;;;;;6.20;2.08;;;;;;;;;;5014220;28;20466;-85
2021/08/15 10:15:25;;;;;;;6.32;2.58;;;;;;;;;;5024649;28;20164;-84
2021/08/15 10:17:52;;;;;;;15.02;1.88;;;;;;;;;;5029322;28;20048;-83
2021/08/15 10:20:22;;;;;;;9.30;3.22;;;;;;;;;;5022210;28;20311;-85
2021/08/15 10:22:48;;;;;;;5.63;2.50;;;;;;;;;;5019086;28;20025;-85
2021/08/15 10:25:29;;;;;;;5.47;2.55;;;;;;;;;;5015062;28;20036;-85
2021/08/15 10:27:55;;;;;;;7.93;2.28;;;;;;;;;;5016108;28;20028;-85
2021/08/15 10:30:20;;;;;;;8.65;2.25;;;;;;;;;;5013765;28;20025;-85
2021/08/15 10:32:54;;;;;;;6.22;2.13;;;;;;;;;;5013451;28;20084;-85
2021/08/15 10:35:20;;;;;;;6.22;2.38;;;;;;;;;;5017481;28;20080;-85
2021/08/15 10:37:46;;;;;;;8.57;2.10;;;;;;;;;;5011738;28;20439;-85
2021/08/15 10:40:31;;;;;;;5.68;2.42;;;;;;;;;;5018535;28;20449;-85
2021/08/15 10:42:57;;;;;;;7.13;2.22;;;;;;;;;;5018119;28;20101;-86
2021/08/15 10:45:23;;;;;;;5.00;2.25;;;;;;;;;;5019511;28;20056;-85
2021/08/15 10:48:10;;;;;;;5.95;2.17;;;;;;;;;;5022841;28;20021;-85
2021/08/15 10:50:52;;;;;;;11.70;2.95;;;;;;;;;;5038977;28;20474;-86
2021/08/15 10:53:29;;;;;;;5.60;2.35;;;;;;;;;;5016294;28;20480;-86
2021/08/15 10:55:54;;;;;;;10.68;3.17;;;;;;;;;;5017892;28;20029;-85
2021/08/15 10:58:38;;;;;;;9.23;2.33;;;;;;;;;;5017644;28;20119;-86
2021/08/15 11:01:09;;;;;;;6.50;2.28;;;;;;;;;;5019606;28;20267;-85
2021/08/15 11:03:35;;;;;;;8.30;2.50;;;;;;;;;;5016653;28;20022;-85
2021/08/15 11:06:02;;;;;;;6.38;1.95;;;;;;;;;;5024958;28;20149;-86
2021/08/15 11:08:33;;;;;;;5.60;1.88;;;;;;;;;;5017895;28;20025;-87
2021/08/15 11:11:10;;;;;;;8.20;2.33;;;;;;;;;;5019913;28;20013;-86
2021/08/15 11:13:36;;;;;;;5.35;2.47;;;;;;;;;;5023947;28;20120;-85
2021/08/15 11:16:20;;;;;;;10.00;2.55;;;;;;;;;;5032449;28;20025;-85
2021/08/15 11:19:04;;;;;;;7.03;2.45;;;;;;;;;;5034379;28;20057;-85
2021/08/15 11:21:48;;;;;;;7.57;3.10;;;;;;;;;;5024298;28;20474;-86
2021/08/15 11:24:14;;;;;;;9.57;2.72;;;;;;;;;;5015149;28;20025;-85
2021/08/15 11:26:43;;;;;;;9.07;2.67;;;;;;;;;;5020550;28;20029;-85
2021/08/15 11:29:09;;;;;;;6.53;2.50;;;;;;;;;;5043333;28;20444;-84
2021/08/15 11:31:35;;;;;;;10.85;2.45;;;;;;;;;;5030129;28;20029;-84
2021/08/15 11:34:07;;;;;;;6.45;2.33;;;;;;;;;;5022984;28;20401;-85
2021/08/15 11:36:32;;;;;;;7.28;1.98;;;;;;;;;;5013716;28;20026;-85
2021/08/15 11:38:57;;;;;;;5.78;2.38;;;;;;;;;;5024593;28;20113;-85
2021/08/15 11:41:23;;;;;;;9.85;2.72;;;;;;;;;;5033791;28;20469;-85
2021/08/15 11:43:57;;;;;;;4.22;1.88;;;;;;;;;;5024639;28;20018;-85
2021/08/15 11:46:22;;;;;;;8.90;2.55;;;;;;;;;;5016644;28;20121;-85
2021/08/15 11:48:47;;;;;;;11.88;2.40;;;;;;;;;;5033525;28;20093;-85
2021/08/15 11:51:13;;;;;;;8.93;2.85;;;;;;;;;;5034805;28;20018;-86
2021/08/15 11:53:39;;;;;;;4.70;2.53;;;;;;;;;;5033290;28;20022;-86
2021/08/15 11:56:14;;;;;;;11.95;2.53;;;;;;;;;;5033733;28;20028;-85
2021/08/15 11:58:50;;;;;;;7.00;2.40;;;;;;;;;;5033255;28;20424;-85
2021/08/15 12:01:16;;;;;;;8.20;2.50;;;;;;;;;;5021496;28;20022;-85
2021/08/15 12:03:41;;;;;;;6.55;2.40;;;;;;;;;;5031563;28;20037;-85
2021/08/15 12:06:07;;;;;;;8.98;2.80;;;;;;;;;;5033269;28;20013;-85
2021/08/15 12:08:35;;;;;;;7.55;2.45;;;;;;;;;;5032943;28;20025;-85
2021/08/15 12:11:01;;;;;;;8.15;2.65;;;;;;;;;;5023962;28;20028;-85
2021/08/15 12:13:32;;;;;;;5.65;2.30;;;;;;;;;;5033090;28;20030;-85
2021/08/15 12:15:57;;;;;;;8.68;2.65;;;;;;;;;;5032527;28;20377;-85
2021/08/15 12:18:26;;;;;;;11.90;3.07;;;;;;;;;;5033091;28;20028;-85
2021/08/15 12:20:51;;;;;;;6.05;2.38;;;;;;;;;;5023190;28;20264;-85
2021/08/15 12:23:17;;;;;;;6.13;2.55;;;;;;;;;;5029152;28;20415;-85
2021/08/15 12:25:42;;;;;;;7.85;2.35;;;;;;;;;;5014256;28;20029;-85
2021/08/15 12:28:11;;;;;;;10.27;2.22;;;;;;;;;;5032211;28;20032;-85
2021/08/15 12:30:37;;;;;;;5.90;2.30;;;;;;;;;;5033008;28;20036;-85
2021/08/15 12:33:20;;;;;;;6.75;2.40;;;;;;;;;;5032515;28;20389;-85
2021/08/15 12:35:45;;;;;;;6.18;2.13;;;;;;;;;;5032666;28;20041;-85
2021/08/15 12:38:24;;;;;;;7.70;2.38;;;;;;;;;;5032393;28;20041;-85
2021/08/15 12:40:49;;;;;;;6.13;2.63;;;;;;;;;;5021360;28;20110;-85
2021/08/15 12:43:22;;;;;;;7.03;2.63;;;;;;;;;;5015606;28;20120;-85
2021/08/15 12:45:47;;;;;;;5.22;2.53;;;;;;;;;;5023856;28;20072;-85
2021/08/15 12:48:13;;;;;;;5.38;2.30;;;;;;;;;;5032380;28;20457;-85
2021/08/15 12:50:39;;;;;;;7.97;2.80;;;;;;;;;;5032410;28;20018;-86
2021/08/15 12:53:17;;;;;;;6.60;2.22;;;;;;;;;;5032155;28;20358;-85
2021/08/15 12:55:42;;;;;;;7.00;2.78;;;;;;;;;;5033764;28;20486;-85
2021/08/15 12:58:09;;;;;;;10.90;2.95;;;;;;;;;;5027284;28;20116;-85
2021/08/15 13:00:45;;;;;;;5.38;2.15;;;;;;;;;;5018791;28;20029;-85
2021/08/15 13:03:11;;;;;;;5.72;2.40;;;;;;;;;;5033053;28;20083;-84
2021/08/15 13:05:37;;;;;;;6.20;2.28;;;;;;;;;;5033689;28;20013;-85
2021/08/15 13:08:03;;;;;;;6.30;2.40;;;;;;;;;;5032201;28;20485;-85
2021/08/15 13:10:29;;;;;;;9.30;2.58;;;;;;;;;;5032008;28;20097;-85
2021/08/15 13:12:54;;;;;;;5.32;2.35;;;;;;;;;;5030611;28;20024;-85
2021/08/15 13:15:20;;;;;;;7.47;2.55;;;;;;;;;;5024587;28;20036;-85
2021/08/15 13:17:45;;;;;;;6.13;2.38;;;;;;;;;;5022048;28;20044;-85
2021/08/15 13:20:12;;;;;;;5.13;2.30;;;;;;;;;;5024030;28;20030;-85
2021/08/15 13:22:38;;;;;;;11.00;2.80;;;;;;;;;;5032875;28;20419;-85
2021/08/15 13:25:03;;;;;;;7.90;2.63;;;;;;;;;;5027288;28;20096;-85
2021/08/15 13:27:29;;;;;;;9.23;2.65;;;;;;;;;;5011447;28;20026;-85
2021/08/15 13:29:54;;;;;;;5.40;2.22;;;;;;;;;;5026643;28;20018;-85
2021/08/15 13:32:22;;;;;;;6.60;3.42;;;;;;;;;;5024249;28;20029;-85
2021/08/15 13:34:47;;;;;;;5.53;2.55;;;;;;;;;;5032214;28;20014;-85
2021/08/15 13:37:14;;;;;;;4.70;2.22;;;;;;;;;;5023028;28;20370;-84
2021/08/15 13:39:39;;;;;;;5.15;1.75;;;;;;;;;;5031683;28;20075;-85
2021/08/15 13:42:05;;;;;;;6.30;1.92;;;;;;;;;;5031564;28;20477;-85
2021/08/15 13:44:30;;;;;;;5.22;2.55;;;;;;;;;;5031348;28;20060;-85
2021/08/15 13:46:55;;;;;;;6.65;2.38;;;;;;;;;;5031475;28;20044;-85
2021/08/15 13:49:20;;;;;;;4.45;2.17;;;;;;;;;;5031532;28;20026;-85
2021/08/15 13:51:46;;;;;;;5.10;2.10;;;;;;;;;;5019062;28;20029;-85
2021/08/15 13:54:11;;;;;;;7.43;2.10;;;;;;;;;;5021553;28;20030;-85
2021/08/15 13:56:36;;;;;;;8.48;2.35;;;;;;;;;;5028146;28;20018;-85
2021/08/15 13:59:04;;;;;;;7.85;2.28;;;;;;;;;;5013036;28;20105;-85
2021/08/15 14:01:29;;;;;;;8.07;2.60;;;;;;;;;;5011607;28;20028;-84
2021/08/15 14:03:55;;;;;;;3.63;1.77;;;;;;;;;;5022202;28;20018;-85
2021/08/15 14:06:20;;;;;;;7.50;2.40;;;;;;;;;;5023832;28;20021;-86
2021/08/15 14:08:45;;;;;;;5.53;2.33;;;;;;;;;;5032423;28;20067;-85
2021/08/15 14:11:10;;;;;;;8.57;2.35;;;;;;;;;;5031381;28;20377;-85
2021/08/15 14:13:36;;;;;;;6.32;2.20;;;;;;;;;;5031127;28;20492;-85
2021/08/15 14:16:01;;;;;;;6.20;2.25;;;;;;;;;;5016439;28;20489;-86
2021/08/15 14:18:27;;;;;;;7.65;2.28;;;;;;;;;;5012295;28;20029;-85
2021/08/15 14:20:53;;;;;;;7.80;2.30;;;;;;;;;;5021692;28;20554;-85
2021/08/15 14:23:18;;;;;;;6.50;2.28;;;;;;;;;;5012463;28;20543;-85
2021/08/15 14:25:43;;;;;;;7.43;2.42;;;;;;;;;;5010512;28;20018;-85
2021/08/15 14:28:08;;;;;;;7.78;2.22;;;;;;;;;;5021273;28;20376;-85
2021/08/15 14:30:35;;;;;;;5.60;2.40;;;;;;;;;;5013610;28;20022;-85